Time;durP1;ratioP1;P1;durP2;ratioP2;P2;SDS_P1;SDS_P2;PMS_P1;PMS_P2;Temp;Humidity;BMP_temperature;BMP_pressure;BME280_temperature;BME280_humidity;BME280_pressure;Samples;Min_cycle;Max_cycle;Signal;HPM_P1;HPM_P2
2022/12/11 00:00:25;;;;;;;6.37;5.23;;;;;;;18.74;48.34;96386.91;4937009;28;20221;-94
2022/12/11 00:02:51;;;;;;;5.70;5.20;;;;;;;19.33;48.54;96487.56;4943070;28;20181;-95
2022/12/11 00:05:18;;;;;;;6.53;5.77;;;;;;;19.21;48.83;96471.94;4946070;28;20210;-94
2022/12/11 00:07:45;;;;;;;5.30;4.80;;;;;;;18.30;48.28;96310.38;4940808;28;20209;-94
2022/12/11 00:10:11;;;;;;;5.53;5.03;;;;;;;19.33;48.24;96485.00;4957221;28;20216;-94
2022/12/11 00:12:38;;;;;;;5.67;5.17;;;;;;;19.57;48.42;96532.22;4932203;28;20192;-94
2022/12/11 00:15:05;;;;;;;5.80;5.23;;;;;;;19.37;48.20;96512.25;4954435;28;20214;-91
2022/12/11 00:17:32;;;;;;;5.07;4.67;;;;;;;18.85;48.56;96426.19;4936720;28;20241;-96
2022/12/11 00:19:58;;;;;;;6.67;5.37;;;;;;;18.42;48.31;96325.97;4939279;28;20273;-94
2022/12/11 00:22:25;;;;;;;5.30;4.80;;;;;;;19.61;48.45;96541.69;4955119;28;20185;-94
2022/12/11 00:24:51;;;;;;;5.53;5.03;;;;;;;19.07;48.35;96450.44;4948858;28;20257;-94
2022/12/11 00:27:18;;;;;;;5.27;4.77;;;;;;;18.66;48.76;96380.78;4939747;28;20257;-93
2022/12/11 00:29:45;;;;;;;5.67;5.17;;;;;;;18.88;48.36;96423.69;4956090;28;20264;-93
2022/12/11 00:32:11;;;;;;;5.53;5.00;;;;;;;20.14;48.47;96641.41;4951596;28;20209;-95
2022/12/11 00:34:38;;;;;;;5.53;5.03;;;;;;;18.33;48.43;96323.19;4950901;28;20214;-92
2022/12/11 00:37:05;;;;;;;5.60;5.10;;;;;;;19.18;48.46;96471.88;4953615;28;20209;-90
2022/12/11 00:39:31;;;;;;;5.47;4.97;;;;;;;18.51;48.63;96364.31;4954849;28;20428;-94
2022/12/11 00:41:58;;;;;;;5.20;4.80;;;;;;;19.24;48.47;96498.34;4959230;28;20185;-94
2022/12/11 00:44:25;;;;;;;5.27;4.77;;;;;;;18.72;48.64;96401.28;4942890;28;20220;-94
2022/12/11 00:46:51;;;;;;;5.00;4.50;;;;;;;19.61;48.42;96567.16;4926020;28;20256;-94
2022/12/11 00:49:18;;;;;;;5.77;5.27;;;;;;;19.52;48.71;96561.88;4926554;28;20192;-94
2022/12/11 00:51:44;;;;;;;5.40;4.90;;;;;;;19.59;48.25;96560.28;4940182;28;20253;-93
2022/12/11 00:54:11;;;;;;;4.77;4.37;;;;;;;18.86;48.23;96435.53;4933063;28;20201;-93
2022/12/11 00:56:38;;;;;;;5.80;5.20;;;;;;;18.41;48.54;96364.94;4926846;28;20240;-95
2022/12/11 00:59:04;;;;;;;5.03;4.53;;;;;;;18.94;48.43;96445.88;4933095;28;20189;-91
2022/12/11 01:01:31;;;;;;;5.03;4.60;;;;;;;18.82;48.58;96426.13;4942915;28;20200;-95
2022/12/11 01:03:58;;;;;;;5.10;4.70;;;;;;;18.96;48.59;96465.47;4947064;28;20208;-93
2022/12/11 01:06:25;;;;;;;4.90;4.50;;;;;;;19.63;48.55;96570.59;4942482;28;20184;-94
2022/12/11 01:10:22;;;;;;;4.77;4.37;;;;;;;19.32;48.50;96530.00;4930583;28;20185;-94
2022/12/11 01:11:39;;;;;;;5.43;4.93;;;;;;;19.01;48.59;96485.94;4935132;28;20209;-95
2022/12/11 01:14:05;;;;;;;5.40;4.90;;;;;;;20.09;48.73;96656.56;4947061;28;20205;-93
2022/12/11 01:16:32;;;;;;;5.37;4.87;;;;;;;19.58;48.58;96571.31;4941371;28;20281;-94
2022/12/11 01:18:59;;;;;;;4.87;4.47;;;;;;;18.84;48.87;96436.31;4925541;28;20256;-95
2022/12/11 01:21:25;;;;;;;5.07;4.67;;;;;;;19.33;48.75;96543.59;4947839;28;20201;-94
2022/12/11 01:23:52;;;;;;;4.47;4.07;;;;;;;19.59;48.67;96579.00;4934612;28;20198;-93
2022/12/11 01:26:19;;;;;;;4.90;4.40;;;;;;;18.54;48.36;96395.78;4947905;28;20181;-94
2022/12/11 01:28:48;;;;;;;4.90;4.50;;;;;;;19.59;48.52;96584.09;4958150;28;20217;-90
2022/12/11 01:31:15;;;;;;;5.10;4.60;;;;;;;19.22;48.53;96514.44;4930945;28;20229;-94
2022/12/11 01:33:42;;;;;;;5.53;5.03;;;;;;;18.73;48.93;96423.34;4937965;28;20185;-95
2022/12/11 01:36:12;;;;;;;4.97;4.57;;;;;;;18.79;48.71;96448.94;4939354;28;20250;-92
2022/12/11 01:38:39;;;;;;;5.10;4.60;;;;;;;19.60;48.59;96574.78;4955215;28;20205;-94
2022/12/11 01:41:06;;;;;;;4.60;4.20;;;;;;;20.03;48.63;96651.34;4942295;28;20221;-90
2022/12/11 01:43:33;;;;;;;5.10;4.60;;;;;;;18.94;48.74;96478.97;4916322;28;20192;-95
2022/12/11 01:46:00;;;;;;;4.77;4.37;;;;;;;18.97;48.46;96468.84;4923817;28;20217;-95
2022/12/11 01:48:28;;;;;;;4.87;4.40;;;;;;;19.49;48.51;96558.38;4937893;28;20182;-94
2022/12/11 01:50:59;;;;;;;4.63;4.17;;;;;;;19.52;48.55;96576.28;4941180;28;20310;-94
2022/12/11 01:53:28;;;;;;;4.80;4.40;;;;;;;17.52;48.69;96225.50;4916939;28;20194;-94
2022/12/11 01:55:55;;;;;;;4.80;4.40;;;;;;;19.58;48.72;96591.72;4936993;28;20190;-93
2022/12/11 01:58:22;;;;;;;4.97;4.47;;;;;;;19.60;48.75;96587.53;4928857;28;20217;-94
2022/12/11 02:00:49;;;;;;;4.43;4.03;;;;;;;18.71;48.48;96434.34;4937361;28;20201;-94
2022/12/11 02:03:16;;;;;;;4.70;4.30;;;;;;;19.89;48.83;96634.88;4935772;28;20201;-93
2022/12/11 02:05:43;;;;;;;5.00;4.60;;;;;;;19.21;49.25;96520.34;4951546;28;20177;-92
2022/12/11 02:08:09;;;;;;;4.60;4.20;;;;;;;18.69;48.58;96428.34;4935245;28;20182;-94
2022/12/11 02:10:46;;;;;;;4.77;4.33;;;;;;;19.63;48.64;96606.28;4941660;28;20213;-95
2022/12/11 02:13:43;;;;;;;4.87;4.37;;;;;;;20.12;48.92;96671.94;4935247;28;20217;-94
2022/12/11 02:16:39;;;;;;;5.03;4.53;;;;;;;20.11;48.84;96670.22;4953209;28;20185;-94
2022/12/11 02:19:14;;;;;;;5.03;4.57;;;;;;;19.26;49.01;96528.94;4952150;28;20220;-89
2022/12/11 02:21:42;;;;;;;4.63;4.23;;;;;;;19.18;49.05;96513.50;4929429;28;20184;-94
2022/12/11 02:24:30;;;;;;;4.80;4.40;;;;;;;20.11;49.14;96670.22;4926490;28;20185;-95
2022/12/11 02:27:03;;;;;;;4.90;4.37;;;;;;;20.13;48.93;96667.75;4956992;28;20201;-95
2022/12/11 02:29:33;;;;;;;5.20;4.70;;;;;;;20.11;48.95;96662.59;4953310;28;20229;-90
2022/12/11 02:32:21;;;;;;;4.70;4.30;;;;;;;18.40;48.94;96398.81;4954026;28;20185;-94
2022/12/11 02:34:55;;;;;;;4.43;4.03;;;;;;;19.60;49.08;96580.72;4933163;28;20234;-94
2022/12/11 02:37:22;;;;;;;4.67;4.27;;;;;;;19.18;49.23;96505.84;4939899;28;20224;-93
2022/12/11 02:39:50;;;;;;;4.80;4.40;;;;;;;19.11;49.05;96498.03;4929352;28;20221;-90
2022/12/11 02:42:17;;;;;;;5.07;4.57;;;;;;;19.23;49.07;96506.81;4937722;28;20189;-94
2022/12/11 02:44:44;;;;;;;4.50;4.10;;;;;;;19.22;49.02;96505.09;4933436;28;20182;-95
2022/12/11 02:47:11;;;;;;;3.97;3.67;;;;;;;19.15;48.98;96498.16;4929351;28;20253;-93
2022/12/11 02:49:39;;;;;;;4.83;4.40;;;;;;;19.35;48.89;96529.19;4920435;28;20237;-94
2022/12/11 02:52:06;;;;;;;4.90;4.40;;;;;;;19.35;49.16;96534.28;4926545;28;20396;-94
2022/12/11 02:54:34;;;;;;;5.00;4.50;;;;;;;19.25;49.05;96519.59;4940873;28;20197;-94
2022/12/11 02:57:04;;;;;;;4.60;4.13;;;;;;;18.35;48.82;96362.22;4940311;28;20232;-94
2022/12/11 02:59:39;;;;;;;4.57;4.17;;;;;;;19.41;48.99;96554.78;4932961;28;20210;-94
2022/12/11 03:02:06;;;;;;;4.80;4.40;;;;;;;19.68;48.96;96593.63;4922035;28;20181;-94
2022/12/11 03:04:33;;;;;;;4.50;4.10;;;;;;;18.01;48.98;96337.69;4951580;28;20188;-94
2022/12/11 03:07:10;;;;;;;4.53;4.13;;;;;;;19.57;48.94;96579.81;4926077;28;20186;-94
2022/12/11 03:09:38;;;;;;;4.77;4.30;;;;;;;19.56;49.23;96583.16;4924865;28;20204;-95
2022/12/11 03:12:08;;;;;;;4.07;3.73;;;;;;;19.30;49.05;96543.53;4917653;28;20209;-95
2022/12/11 03:14:36;;;;;;;5.00;4.60;;;;;;;19.23;48.94;96519.56;4939984;28;20208;-94
2022/12/11 03:17:10;;;;;;;4.43;4.03;;;;;;;19.73;48.95;96615.00;4927627;28;20209;-94
2022/12/11 03:19:39;;;;;;;4.40;4.00;;;;;;;19.60;48.88;96595.16;4951592;28;20205;-95
2022/12/11 03:22:40;;;;;;;4.23;3.83;;;;;;;19.71;49.11;96606.44;4931504;28;20213;-95
2022/12/11 03:25:10;;;;;;;4.10;3.70;;;;;;;19.67;49.13;96597.00;4940709;28;20181;-90
2022/12/11 03:27:44;;;;;;;4.00;3.70;;;;;;;19.59;48.98;96580.69;4928242;28;20257;-94
2022/12/11 03:30:13;;;;;;;4.47;4.07;;;;;;;19.64;49.11;96591.84;4930129;28;20280;-94
2022/12/11 03:32:50;;;;;;;4.47;4.07;;;;;;;19.52;48.86;96573.75;4927345;28;20181;-94
2022/12/11 03:35:20;;;;;;;4.23;3.83;;;;;;;19.28;48.98;96522.25;4938844;28;20252;-93
2022/12/11 03:37:47;;;;;;;4.50;4.10;;;;;;;19.04;48.95;96481.75;4933817;28;20232;-94
2022/12/11 03:40:15;;;;;;;4.37;4.07;;;;;;;19.31;48.84;96530.81;4931537;28;20205;-94
2022/12/11 03:42:43;;;;;;;4.13;3.83;;;;;;;18.77;48.93;96435.31;4941392;28;20252;-94
2022/12/11 03:45:09;;;;;;;4.67;4.27;;;;;;;20.19;48.89;96681.47;4932642;28;20253;-93
2022/12/11 03:47:37;;;;;;;4.20;3.80;;;;;;;18.82;48.64;96459.19;4939627;28;20185;-94
2022/12/11 03:50:04;;;;;;;4.43;4.03;;;;;;;19.69;49.04;96598.75;4941705;28;20279;-93
2022/12/11 03:52:31;;;;;;;4.60;4.20;;;;;;;19.92;49.00;96643.47;4920951;28;20232;-92
2022/12/11 03:55:00;;;;;;;4.20;3.90;;;;;;;19.23;48.96;96522.13;4940914;28;20249;-94
2022/12/11 03:57:29;;;;;;;5.03;4.57;;;;;;;19.24;48.87;96521.28;4931720;28;20255;-94
2022/12/11 03:59:56;;;;;;;4.07;3.77;;;;;;;19.27;49.04;96525.63;4928039;28;20205;-91
2022/12/11 04:02:22;;;;;;;4.13;3.83;;;;;;;20.20;48.95;96680.66;4934769;28;20657;-94
2022/12/11 04:04:49;;;;;;;4.60;4.20;;;;;;;18.87;48.95;96457.63;4953174;28;20189;-95
2022/12/11 04:07:15;;;;;;;4.13;3.80;;;;;;;18.94;48.61;96464.56;4935123;28;20181;-93
2022/12/11 04:09:42;;;;;;;4.47;4.07;;;;;;;17.95;48.77;96296.88;4950683;28;20272;-94
2022/12/11 04:12:08;;;;;;;4.17;3.87;;;;;;;19.70;49.09;96595.41;4957335;28;20213;-96
2022/12/11 04:25:36;;;;;;;4.60;4.20;;;;;;;16.01;48.93;95962.88;4968677;29;20200;-89
2022/12/11 04:28:03;;;;;;;4.63;4.23;;;;;;;12.95;48.79;95462.25;4984672;28;20240;-87
2022/12/11 04:30:32;;;;;;;3.80;3.50;;;;;;;12.07;48.75;95468.69;4965090;29;20216;-89
2022/12/11 04:33:03;;;;;;;3.93;3.63;;;;;;;15.35;48.65;95980.41;4964890;29;20203;-90
2022/12/11 04:35:32;;;;;;;4.33;4.00;;;;;;;9.28;48.46;94965.09;4969605;28;20200;-87
2022/12/11 04:38:00;;;;;;;4.30;3.90;;;;;;;11.41;48.70;95255.16;4963232;29;20224;-87
2022/12/11 04:40:27;;;;;;;3.90;3.60;;;;;;;18.39;48.91;96372.53;4966929;29;20495;-87
2022/12/11 04:42:53;;;;;;;4.10;3.70;;;;;;;16.46;48.89;96036.72;4968687;29;20200;-89
2022/12/11 04:45:20;;;;;;;4.13;3.83;;;;;;;20.20;49.01;96675.56;4957075;29;20204;-88
2022/12/11 04:47:47;;;;;;;4.00;3.70;;;;;;;14.64;48.72;95746.56;4967818;28;20209;-87
2022/12/11 04:50:13;;;;;;;3.77;3.47;;;;;;;20.01;48.83;96644.50;4957513;29;20229;-88
2022/12/11 04:52:41;;;;;;;4.23;3.83;;;;;;;15.04;48.72;95881.69;4965576;28;20232;-87
2022/12/11 04:55:08;;;;;;;3.73;3.43;;;;;;;14.02;48.77;95624.31;4939600;29;20208;-87
2022/12/11 04:57:35;;;;;;;3.90;3.60;;;;;;;8.70;48.77;94706.84;4948902;29;20270;-90
2022/12/11 05:00:05;;;;;;;4.00;3.70;;;;;;;13.09;48.65;95550.91;4958257;28;20223;-88
2022/12/11 05:02:34;;;;;;;4.30;3.90;;;;;;;20.18;48.81;96669.56;4949357;29;20201;-87
2022/12/11 05:05:05;;;;;;;4.03;3.63;;;;;;;14.39;48.73;95743.31;4947949;28;20209;-87
2022/12/11 05:07:32;;;;;;;4.00;3.70;;;;;;;20.17;48.84;96660.19;4950558;29;20208;-88
2022/12/11 05:09:59;;;;;;;3.90;3.60;;;;;;;20.05;48.83;96639.50;4970053;28;20220;-87
2022/12/11 05:12:25;;;;;;;4.13;3.83;;;;;;;16.05;48.66;95956.22;4960757;29;20212;-88
2022/12/11 05:14:52;;;;;;;4.10;3.80;;;;;;;9.37;48.59;94942.88;4959020;29;20236;-87
2022/12/11 05:17:20;;;;;;;4.27;3.87;;;;;;;13.85;48.80;95659.19;4953749;29;20197;-87
2022/12/11 05:19:50;;;;;;;3.83;3.53;;;;;;;19.98;49.13;96624.88;4952451;29;20216;-87
2022/12/11 05:22:17;;;;;;;3.70;3.40;;;;;;;10.21;48.74;94957.41;4986051;28;20208;-87
2022/12/11 05:24:44;;;;;;;3.87;3.57;;;;;;;13.47;48.65;95676.53;4968198;29;20250;-88
2022/12/11 05:27:11;;;;;;;3.73;3.43;;;;;;;15.86;48.96;96035.06;4969780;29;20212;-88
2022/12/11 05:29:39;;;;;;;3.80;3.40;;;;;;;20.13;49.09;96648.19;4963106;29;20220;-88
2022/12/11 05:32:06;;;;;;;3.77;3.47;;;;;;;16.60;48.78;96044.66;4968821;29;20212;-88
2022/12/11 05:34:33;;;;;;;3.47;3.23;;;;;;;20.17;48.91;96656.75;4965573;29;20204;-87
2022/12/11 05:37:00;;;;;;;3.57;3.27;;;;;;;18.72;49.07;96426.75;4959555;29;20224;-87
2022/12/11 05:39:29;;;;;;;3.50;3.20;;;;;;;19.63;48.79;96568.03;4959664;29;20222;-88
2022/12/11 05:42:01;;;;;;;3.80;3.50;;;;;;;9.34;48.84;94932.72;4970060;29;20291;-89
2022/12/11 05:44:28;;;;;;;4.00;3.70;;;;;;;13.25;48.71;95485.84;4963401;28;20208;-87
2022/12/11 05:46:58;;;;;;;4.00;3.60;;;;;;;10.43;49.00;95127.97;4968740;28;20208;-89
2022/12/11 05:49:25;;;;;;;4.00;3.70;;;;;;;10.75;48.78;95196.00;4964852;29;20189;-89
2022/12/11 05:51:56;;;;;;;4.10;3.60;;;;;;;19.67;48.74;96581.72;4970272;28;20200;-86
2022/12/11 05:54:23;;;;;;;4.20;3.83;;;;;;;16.21;48.72;95984.53;4964619;29;20204;-88
2022/12/11 05:56:50;;;;;;;3.83;3.53;;;;;;;17.49;48.89;96200.91;4975901;28;20205;-87
2022/12/11 05:59:18;;;;;;;4.00;3.70;;;;;;;7.77;48.55;94548.56;4966925;28;20320;-89
2022/12/11 06:01:47;;;;;;;3.80;3.50;;;;;;;11.60;48.73;95340.44;4972376;29;20256;-89
2022/12/11 06:04:18;;;;;;;3.90;3.60;;;;;;;7.65;48.54;94679.69;4956002;29;20219;-88
2022/12/11 06:06:45;;;;;;;4.00;3.70;;;;;;;15.89;48.69;95923.69;4975948;29;20210;-88
2022/12/11 06:09:15;;;;;;;3.77;3.47;;;;;;;16.71;48.70;96101.59;4970106;29;20256;-89
2022/12/11 06:11:41;;;;;;;3.77;3.47;;;;;;;8.84;49.23;94863.34;4974885;29;20212;-91
2022/12/11 06:14:08;;;;;;;3.90;3.60;;;;;;;16.57;48.64;96035.31;4973868;29;20215;-88
2022/12/11 06:16:41;;;;;;;4.23;3.83;;;;;;;17.15;49.12;96316.75;4969534;29;20291;-88
2022/12/11 06:19:13;;;;;;;4.07;3.67;;;;;;;12.46;48.91;95330.59;4950843;28;20224;-88
2022/12/11 06:21:39;;;;;;;4.20;3.87;;;;;;;16.35;48.61;95995.00;4933241;29;20240;-88
2022/12/11 06:24:06;;;;;;;3.70;3.40;;;;;;;13.14;48.41;95497.28;4966225;29;20201;-89
2022/12/11 06:26:35;;;;;;;4.10;3.80;;;;;;;10.25;48.59;94950.03;4958794;29;20227;-86
2022/12/11 06:29:02;;;;;;;3.60;3.30;;;;;;;13.34;48.48;95480.19;4971875;28;20219;-89
2022/12/11 06:31:34;;;;;;;3.83;3.53;;;;;;;15.04;48.00;95796.53;4963917;29;20225;-89
2022/12/11 06:34:03;;;;;;;3.97;3.67;;;;;;;16.35;48.62;96050.78;4971298;28;20220;-88
2022/12/11 06:36:30;;;;;;;4.43;4.03;;;;;;;13.86;48.20;95617.16;4973542;28;20264;-87
2022/12/11 06:38:59;;;;;;;4.40;4.00;;;;;;;11.43;48.14;95253.53;4975547;29;20216;-89
2022/12/11 06:41:25;;;;;;;3.63;3.33;;;;;;;11.04;48.25;95144.22;4975549;28;20252;-87
2022/12/11 06:43:52;;;;;;;3.60;3.30;;;;;;;12.38;48.48;95363.09;4969819;28;20200;-88
2022/12/11 06:46:28;;;;;;;4.00;3.70;;;;;;;9.59;48.43;94985.38;4976591;28;20224;-88
2022/12/11 06:49:02;;;;;;;3.73;3.43;;;;;;;17.44;48.84;96250.72;4959815;29;20196;-89
2022/12/11 06:51:28;;;;;;;3.90;3.60;;;;;;;16.24;48.40;95986.28;4987606;28;20220;-87
2022/12/11 06:53:55;;;;;;;3.73;3.43;;;;;;;8.99;48.25;94758.72;4973842;28;20268;-86
2022/12/11 06:56:25;;;;;;;4.00;3.70;;;;;;;14.09;48.53;95705.34;4953727;29;20208;-88
2022/12/11 06:59:02;;;;;;;4.10;3.70;;;;;;;13.74;48.69;95604.19;4954839;29;20220;-87
2022/12/11 07:01:33;;;;;;;4.00;3.70;;;;;;;15.91;48.52;95935.59;4971435;29;20220;-88
2022/12/11 07:03:59;;;;;;;4.03;3.70;;;;;;;20.13;48.60;96658.38;4974256;29;20664;-87
2022/12/11 07:06:27;;;;;;;3.87;3.57;;;;;;;15.19;48.58;95872.84;4969853;28;20228;-88
2022/12/11 07:08:54;;;;;;;4.07;3.77;;;;;;;15.80;48.57;95920.94;4974578;28;20283;-90
2022/12/11 07:11:20;;;;;;;3.97;3.67;;;;;;;15.55;48.65;95885.66;4967720;29;20216;-88
2022/12/11 07:13:47;;;;;;;4.33;3.93;;;;;;;16.88;48.58;96110.50;4971378;29;20201;-89
2022/12/11 07:16:14;;;;;;;4.73;4.13;;;;;;;13.51;48.41;95534.53;4956158;29;20200;-87
2022/12/11 07:18:43;;;;;;;3.90;3.60;;;;;;;15.54;48.30;95873.84;4966901;29;20239;-87
2022/12/11 07:21:11;;;;;;;4.07;3.67;;;;;;;18.50;48.28;96373.63;4951107;29;20219;-91
2022/12/11 07:23:38;;;;;;;4.00;3.70;;;;;;;20.13;48.38;96658.38;4970242;29;20213;-87
2022/12/11 07:26:05;;;;;;;4.30;4.00;;;;;;;17.39;48.48;96188.78;4962986;28;20268;-88
2022/12/11 07:28:33;;;;;;;4.03;3.73;;;;;;;20.14;48.39;96659.25;4986733;28;20180;-86
2022/12/11 07:31:06;;;;;;;4.10;3.77;;;;;;;17.78;48.19;96321.00;4954175;29;20288;-90
2022/12/11 07:33:33;;;;;;;4.20;3.90;;;;;;;13.75;48.07;95570.53;4937978;29;20208;-87
2022/12/11 07:36:03;;;;;;;4.13;3.77;;;;;;;15.09;48.32;95838.00;4956523;29;20201;-89
2022/12/11 07:38:30;;;;;;;3.87;3.57;;;;;;;16.84;48.08;96104.47;4971489;28;20213;-88
2022/12/11 07:41:04;;;;;;;4.33;3.93;;;;;;;7.93;47.85;94777.41;4970710;29;20254;-87
2022/12/11 07:43:31;;;;;;;3.63;3.33;;;;;;;13.78;47.88;95631.19;4959717;29;20236;-91
2022/12/11 07:46:12;;;;;;;4.33;3.93;;;;;;;15.17;48.21;95924.22;4954820;29;20201;-88
2022/12/11 07:48:39;;;;;;;4.07;3.77;;;;;;;13.50;47.93;95535.34;4967596;29;20618;-89
2022/12/11 07:51:16;;;;;;;4.87;4.47;;;;;;;11.13;47.25;95213.22;4969823;29;20307;-89
2022/12/11 07:53:44;;;;;;;4.30;3.90;;;;;;;15.71;47.95;95918.16;4942563;29;20675;-88
2022/12/11 07:56:11;;;;;;;3.93;3.63;;;;;;;16.00;47.98;95962.84;4970743;29;20260;-88
2022/12/11 07:58:37;;;;;;;7.37;4.30;;;;;;;16.11;48.05;96007.91;4968346;29;20220;-88
2022/12/11 08:01:05;;;;;;;4.27;3.97;;;;;;;13.58;47.58;95585.19;4968286;29;20225;-91
2022/12/11 08:03:32;;;;;;;4.50;4.10;;;;;;;20.14;48.40;96675.44;4970945;29;20224;-87
2022/12/11 08:05:58;;;;;;;4.07;3.77;;;;;;;18.75;47.85;96459.91;4966519;29;20224;-88
2022/12/11 08:08:25;;;;;;;4.43;4.10;;;;;;;16.69;47.90;96082.97;4967553;29;20193;-90
2022/12/11 08:10:52;;;;;;;4.53;4.13;;;;;;;16.28;48.06;96034.53;4983496;28;20220;-89
2022/12/11 08:13:18;;;;;;;4.00;3.70;;;;;;;20.15;48.41;96678.81;4985330;28;20201;-89
2022/12/11 08:15:45;;;;;;;4.10;3.80;;;;;;;13.47;48.28;95532.72;4972553;29;20204;-90
2022/12/11 08:18:12;;;;;;;4.20;3.80;;;;;;;16.68;47.90;96078.69;4965757;29;20197;-92
2022/12/11 08:20:38;;;;;;;4.37;3.97;;;;;;;17.81;47.62;96349.91;4969019;29;20239;-89
2022/12/11 08:23:05;;;;;;;4.00;3.70;;;;;;;19.11;48.01;96506.56;4967583;29;20212;-87
2022/12/11 08:25:31;;;;;;;4.33;3.93;;;;;;;12.76;47.78;95414.59;4965850;28;20201;-88
2022/12/11 08:27:58;;;;;;;4.73;4.33;;;;;;;18.24;47.70;96360.28;4964654;29;20268;-89
2022/12/11 08:30:24;;;;;;;4.70;4.30;;;;;;;17.90;47.82;96306.06;4958486;29;20231;-90
2022/12/11 08:32:51;;;;;;;4.67;4.27;;;;;;;17.01;47.70;96169.19;4950988;29;20205;-87
2022/12/11 08:35:18;;;;;;;4.77;4.37;;;;;;;19.84;47.71;96649.25;4962292;29;20201;-87
2022/12/11 08:37:44;;;;;;;5.03;4.53;;;;;;;14.79;47.67;95768.88;4957248;29;20197;-88
2022/12/11 08:40:11;;;;;;;4.40;4.00;;;;;;;15.57;47.84;96057.03;4961770;28;20692;-87
2022/12/11 08:42:37;;;;;;;4.20;3.80;;;;;;;20.07;47.83;96677.78;4967843;29;20218;-87
2022/12/11 08:45:05;;;;;;;4.77;4.37;;;;;;;18.95;47.68;96488.34;4956919;29;20232;-85
2022/12/11 08:47:31;;;;;;;4.90;4.13;;;;;;;19.07;47.78;96542.94;4967632;29;20214;-89
2022/12/11 08:49:58;;;;;;;15.73;5.30;;;;;;;17.83;47.60;96357.56;4953277;29;20313;-88
2022/12/11 08:52:24;;;;;;;11.20;4.80;;;;;;;20.15;47.55;96681.38;4963168;29;20204;-84
2022/12/11 08:54:51;;;;;;;5.97;4.63;;;;;;;20.15;47.60;96686.47;4958808;29;20212;-88
2022/12/11 08:57:17;;;;;;;26.20;5.23;;;;;;;20.16;47.66;96695.88;4980807;28;20272;-87
2022/12/11 08:59:44;;;;;;;9.43;5.20;;;;;;;15.56;47.42;95986.09;4967961;29;20256;-87
2022/12/11 09:02:11;;;;;;;15.17;5.50;;;;;;;16.92;47.17;96138.53;4968742;29;20212;-89
2022/12/11 09:04:38;;;;;;;9.47;5.40;;;;;;;20.16;47.54;96689.06;4971199;29;20228;-88
2022/12/11 09:07:05;;;;;;;13.87;5.47;;;;;;;17.35;46.86;96201.38;4954856;29;20188;-88
2022/12/11 09:09:31;;;;;;;7.07;4.80;;;;;;;18.21;47.40;96356.81;4970350;29;20268;-87
2022/12/11 09:12:00;;;;;;;7.10;5.00;;;;;;;20.17;47.37;96695.03;4967215;29;20227;-93
2022/12/11 09:14:26;;;;;;;10.30;5.10;;;;;;;20.17;47.31;96695.91;4968626;28;20208;-88
2022/12/11 09:16:53;;;;;;;8.27;5.03;;;;;;;15.17;47.20;95848.31;4966417;28;20215;-86
2022/12/11 09:19:19;;;;;;;7.87;5.27;;;;;;;19.00;47.10;96558.91;4966644;29;20224;-88
2022/12/11 09:21:46;;;;;;;10.50;4.73;;;;;;;15.95;46.91;95966.91;4943821;29;20209;-89
2022/12/11 09:24:13;;;;;;;10.03;5.40;;;;;;;18.73;46.91;96486.97;4969580;28;20200;-89
2022/12/11 09:26:40;;;;;;;6.07;5.00;;;;;;;17.58;47.12;96249.38;4961896;29;20200;-87
2022/12/11 09:29:07;;;;;;;6.90;6.20;;;;;;;18.60;46.78;96429.00;4959870;29;20197;-87
2022/12/11 09:31:34;;;;;;;11.37;8.27;;;;;;;18.45;43.17;96399.78;4940107;29;20248;-86
2022/12/11 09:34:03;;;;;;;11.17;9.50;;;;;;;18.77;41.84;96475.19;4944439;29;20670;-90
2022/12/11 09:36:30;;;;;;;9.53;8.53;;;;;;;18.21;42.45;96367.81;4949552;29;20218;-88
2022/12/11 09:39:03;;;;;;;8.73;7.90;;;;;;;14.94;43.64;95808.88;4944988;29;20229;-86
2022/12/11 09:41:39;;;;;;;9.60;7.30;;;;;;;20.16;44.41;96685.66;4963468;29;20233;-87
2022/12/11 09:44:15;;;;;;;8.27;7.47;;;;;;;15.37;44.76;95865.78;4981963;28;20818;-90
2022/12/11 09:46:42;;;;;;;8.63;7.40;;;;;;;18.35;44.82;96388.50;4967177;28;20272;-88
2022/12/11 09:49:40;;;;;;;9.73;6.80;;;;;;;13.29;45.36;95509.50;4945749;29;20228;-87
2022/12/11 09:52:13;;;;;;;8.60;7.07;;;;;;;20.14;45.60;96683.09;4964096;28;20279;-87
2022/12/11 09:54:51;;;;;;;7.37;6.67;;;;;;;20.15;45.93;96745.16;4958287;28;20292;-89
2022/12/11 09:57:30;;;;;;;7.70;6.57;;;;;;;20.15;45.98;96681.38;4948451;29;20224;-90
2022/12/11 10:00:23;;;;;;;7.00;6.30;;;;;;;20.15;46.04;96682.25;4962944;29;20295;-88
2022/12/11 10:02:59;;;;;;;7.40;6.47;;;;;;;20.15;46.00;96686.47;4961537;29;20211;-88
2022/12/11 10:05:32;;;;;;;7.97;5.93;;;;;;;20.15;46.16;96679.69;4959988;29;20192;-89
2022/12/11 10:08:09;;;;;;;6.90;6.30;;;;;;;20.15;45.97;96673.72;4955861;29;20666;-88
2022/12/11 10:10:47;;;;;;;8.03;6.50;;;;;;;13.21;45.71;95584.06;4963384;28;20334;-88
2022/12/11 10:13:36;;;;;;;6.60;5.87;;;;;;;20.15;45.97;96676.28;4941876;29;20194;-89
2022/12/11 10:16:41;;;;;;;6.87;6.23;;;;;;;20.15;46.02;96681.38;4974038;29;20269;-88
2022/12/11 10:19:20;;;;;;;6.23;5.63;;;;;;;18.68;46.02;96419.00;4971344;29;20252;-86
2022/12/11 10:21:48;;;;;;;5.53;4.93;;;;;;;17.63;46.43;96283.38;4969633;28;20239;-87
2022/12/11 10:24:35;;;;;;;6.27;5.67;;;;;;;19.29;45.84;96521.41;4958552;23;20229;-90
2022/12/11 10:27:25;;;;;;;6.20;5.60;;;;;;;19.80;45.91;96599.00;4927475;29;20208;-89
2022/12/11 10:29:58;;;;;;;5.53;5.03;;;;;;;18.48;46.21;96376.97;4917138;29;20209;-91
2022/12/11 10:32:32;;;;;;;5.67;5.17;;;;;;;19.95;46.12;96618.03;4937149;28;20236;-90
2022/12/11 10:35:01;;;;;;;5.93;5.20;;;;;;;20.15;46.44;96654.19;4917634;29;20229;-91
2022/12/11 10:37:28;;;;;;;5.57;5.00;;;;;;;19.80;46.59;96593.88;4892610;29;20737;-89
2022/12/11 10:39:54;;;;;;;5.43;4.77;;;;;;;19.67;46.19;96564.75;4893082;29;20217;-90
2022/12/11 10:42:21;;;;;;;5.47;4.93;;;;;;;19.89;46.55;96604.28;4912485;29;20212;-89
2022/12/11 10:44:59;;;;;;;5.40;4.70;;;;;;;19.42;46.34;96518.31;4913933;29;20646;-89
2022/12/11 10:47:26;;;;;;;5.37;4.87;;;;;;;19.88;46.46;96603.44;4914823;29;20220;-90
2022/12/11 10:49:52;;;;;;;5.53;4.30;;;;;;;20.15;46.47;96640.56;4900968;29;20205;-90
2022/12/11 10:52:23;;;;;;;8.07;4.70;;;;;;;18.92;46.51;96440.75;4920286;29;20301;-90
2022/12/11 10:55:01;;;;;;;6.83;4.33;;;;;;;19.09;46.73;96459.81;4917186;29;20602;-91
2022/12/11 10:57:33;;;;;;;6.33;4.17;;;;;;;19.21;46.84;96474.50;4902699;29;20217;-92
2022/12/11 11:00:00;;;;;;;4.70;4.30;;;;;;;19.69;46.92;96559.69;4890193;29;20761;-92
2022/12/11 11:02:41;;;;;;;6.80;4.20;;;;;;;19.94;46.97;96611.22;4902575;29;20538;-91
2022/12/11 11:05:16;;;;;;;4.57;4.17;;;;;;;18.89;47.26;96407.59;4899033;29;20210;-90
2022/12/11 11:07:42;;;;;;;4.57;4.17;;;;;;;19.73;47.10;96541.94;4915447;29;20732;-92
2022/12/11 11:10:09;;;;;;;5.23;4.20;;;;;;;20.18;46.97;96617.66;4918673;29;20689;-90
2022/12/11 11:12:38;;;;;;;5.30;4.43;;;;;;;19.73;47.07;96533.41;4928926;29;20688;-90
2022/12/11 11:15:09;;;;;;;5.97;4.37;;;;;;;19.73;47.10;96530.88;4900743;29;20232;-89
2022/12/11 11:17:49;;;;;;;5.43;4.30;;;;;;;19.59;47.13;96500.00;4897661;29;20209;-90
2022/12/11 11:20:22;;;;;;;10.03;3.93;;;;;;;19.66;47.13;96499.28;4909932;29;20221;-89
2022/12/11 11:22:52;;;;;;;4.70;3.50;;;;;;;19.39;47.16;96452.84;4903105;29;20213;-90
2022/12/11 11:25:20;;;;;;;4.00;3.60;;;;;;;20.01;47.31;96552.69;4884276;29;20555;-90
2022/12/11 11:27:52;;;;;;;4.20;3.43;;;;;;;19.57;47.29;96485.53;4889757;29;20292;-90
2022/12/11 11:30:23;;;;;;;4.57;3.97;;;;;;;19.71;47.42;96500.25;4884384;29;20210;-89
2022/12/11 11:33:03;;;;;;;5.50;4.07;;;;;;;19.52;47.49;96477.78;4916461;29;20688;-89
2022/12/11 11:35:30;;;;;;;6.50;3.80;;;;;;;19.08;47.35;96371.53;4887952;29;20241;-90
2022/12/11 11:38:04;;;;;;;3.70;3.40;;;;;;;20.20;47.65;96562.44;4916791;29;20218;-89
2022/12/11 11:40:52;;;;;;;5.00;3.77;;;;;;;20.19;47.46;96565.84;4925133;29;20309;-90
2022/12/11 11:43:33;;;;;;;4.97;3.60;;;;;;;20.20;47.40;96570.09;4918067;29;20241;-91
2022/12/11 11:46:01;;;;;;;4.10;3.60;;;;;;;19.79;47.33;96495.31;4914903;29;20212;-90
2022/12/11 11:49:11;;;;;;;3.93;3.60;;;;;;;20.20;47.10;96553.13;4908947;29;20217;-89
2022/12/11 11:51:43;;;;;;;5.33;3.93;;;;;;;19.64;46.97;96472.06;4880259;29;20211;-91
2022/12/11 11:54:24;;;;;;;4.40;4.00;;;;;;;19.72;46.78;96473.09;4890820;29;20598;-91
2022/12/11 11:56:51;;;;;;;4.60;3.87;;;;;;;19.46;47.07;96429.25;4915355;29;20643;-90